< < Back
Terminal Aerodrome Forecast


Current Version              Previous Versions:   1  2  3  4  5  6  7  8  9  

Terminal Aerodrome Forecast

350
FTUS42 KGSP 302058 AAD
TAFCLT
TAF AMD
KCLT 302058Z 3021/3118 28010G17KT P6SM FEW070
     FM310000 33005KT P6SM FEW200
     FM310900 19003KT P6SM FEW250
     FM311500 21007KT P6SM FEW120
     FM311700 21008G16KT P6SM FEW200=

Latest METAR

496
SAUS70 KWBC 311200 RRH
MTRCLT
METAR KCLT 311152Z 14005KT 10SM CLR 07/01 A3005 RMK AO2 SLP173 70019
T00670011 10111 20017 53005 $


USA.gov is the U.S. government's official web portal to all federal, state and local government web resources and services.